createdAt,value
2019-04-06T11:35:32.539Z,20.77
2019-04-06T11:40:47.637Z,20.10
2019-04-06T11:46:11.939Z,21.73
2019-04-06T11:51:26.915Z,19.00
2019-04-06T11:56:44.815Z,16.93
2019-04-06T12:01:50.910Z,16.30
2019-04-06T12:07:06.565Z,15.10
2019-04-06T12:12:12.922Z,10.10
2019-04-06T12:17:19.026Z,16.03
2019-04-06T12:22:25.133Z,12.83
2019-04-06T12:27:46.206Z,18.27
2019-04-06T12:32:50.470Z,17.10
2019-04-06T12:37:56.570Z,15.50
2019-04-06T12:43:03.459Z,14.20
2019-04-06T12:48:12.154Z,15.27
2019-04-06T12:53:19.372Z,12.60
2019-04-06T12:58:26.254Z,12.03
2019-04-06T13:03:32.352Z,12.97
2019-04-06T13:08:47.729Z,14.37
2019-04-06T13:13:53.972Z,12.37
2019-04-06T13:19:05.868Z,9.60
2019-04-06T13:24:12.030Z,10.80
2019-04-06T13:29:33.383Z,10.57
2019-04-06T13:34:45.414Z,8.97
2019-04-06T13:40:00.135Z,10.33
2019-04-06T13:45:14.892Z,7.50
2019-04-06T13:50:39.457Z,9.20
2019-04-06T13:55:45.569Z,10.17
2019-04-06T14:00:57.392Z,8.30
2019-04-06T14:06:12.714Z,7.70
2019-04-06T14:11:24.779Z,7.30
2019-04-06T14:16:31.039Z,9.03
2019-04-06T14:21:35.418Z,6.80
2019-04-06T14:26:48.819Z,9.07
2019-04-06T14:32:10.210Z,7.77
2019-04-06T14:37:31.396Z,8.10
2019-04-06T14:42:40.120Z,6.70
2019-04-06T14:47:44.698Z,6.60
2019-04-06T14:52:53.279Z,7.10
2019-04-06T14:58:01.924Z,8.10
2019-04-06T15:03:26.319Z,8.23
2019-04-06T15:08:47.709Z,7.97
2019-04-06T15:14:05.406Z,6.13
2019-04-06T15:19:21.561Z,7.57
2019-04-06T15:24:44.087Z,7.40
2019-04-06T15:30:06.330Z,7.60
2019-04-06T15:35:12.436Z,6.23
2019-04-06T15:40:34.717Z,6.70
2019-04-06T15:45:48.142Z,7.53
2019-04-06T15:51:02.117Z,6.00
2019-04-06T15:56:11.187Z,6.07
2019-04-06T16:01:35.081Z,6.70
2019-04-06T16:06:57.539Z,5.97
2019-04-06T16:12:01.744Z,5.97
2019-04-06T16:17:10.563Z,6.53
2019-04-06T16:22:14.876Z,6.53
2019-04-06T16:27:27.908Z,6.13
2019-04-06T16:32:37.409Z,6.20
2019-04-06T16:37:46.792Z,5.27
2019-04-06T16:43:07.998Z,5.70
2019-04-06T16:48:14.088Z,5.30
2019-04-06T16:53:38.255Z,5.90
2019-04-06T16:59:00.597Z,5.80
2019-04-06T17:04:23.346Z,6.07
